createdAt,value
2023-01-07T00:01:09.180Z,7.79
2023-01-07T00:03:35.719Z,7.80
2023-01-07T00:06:02.847Z,7.75
2023-01-07T00:08:32.545Z,7.76
2023-01-07T00:11:02.762Z,7.77
2023-01-07T00:13:29.229Z,7.73
2023-01-07T00:15:59.464Z,7.70
2023-01-07T00:18:26.009Z,7.66
2023-01-07T00:20:52.433Z,7.61
2023-01-07T00:23:18.885Z,7.61
2023-01-07T00:25:45.335Z,7.60
2023-01-07T00:28:11.867Z,7.56
2023-01-07T00:30:38.311Z,7.49
2023-01-07T00:33:06.189Z,7.41
2023-01-07T00:35:33.298Z,7.36
2023-01-07T00:37:59.822Z,7.30
2023-01-07T00:40:26.297Z,7.22
2023-01-07T00:42:55.729Z,7.18
2023-01-07T00:45:22.569Z,7.16
2023-01-07T00:47:49.376Z,7.14
2023-01-07T00:50:15.935Z,7.13
2023-01-07T00:52:42.380Z,7.12
2023-01-07T00:55:11.089Z,7.09
2023-01-07T00:57:37.584Z,7.10
2023-01-07T01:00:04.382Z,7.08
2023-01-07T01:02:30.886Z,7.08
2023-01-07T01:04:57.342Z,7.07
2023-01-07T01:07:23.775Z,7.04
2023-01-07T01:09:50.344Z,7.02
2023-01-07T01:12:16.795Z,6.98
2023-01-07T01:14:43.289Z,6.96
2023-01-07T01:17:09.737Z,6.95
2023-01-07T01:19:36.152Z,7.00
2023-01-07T01:22:02.556Z,6.95
2023-01-07T01:24:29.157Z,6.94
2023-01-07T01:26:55.618Z,6.93
2023-01-07T01:29:22.166Z,6.94
2023-01-07T01:31:48.714Z,7.00
2023-01-07T01:34:15.190Z,6.94
2023-01-07T01:36:41.861Z,6.93
2023-01-07T01:39:08.370Z,6.90
2023-01-07T01:41:34.907Z,6.88
2023-01-07T01:44:01.493Z,6.89
2023-01-07T01:46:38.232Z,6.89
2023-01-07T01:49:13.374Z,6.86
2023-01-07T01:51:40.670Z,6.84
2023-01-07T01:54:07.455Z,6.84
2023-01-07T01:56:34.526Z,6.84
2023-01-07T01:59:01.750Z,6.82
2023-01-07T02:01:28.497Z,6.80
2023-01-07T02:03:55.031Z,6.80
2023-01-07T02:06:25.347Z,6.79
2023-01-07T02:08:51.768Z,6.79
2023-01-07T02:11:24.408Z,6.77
2023-01-07T02:14:06.211Z,6.77
2023-01-07T02:16:44.149Z,6.76
2023-01-07T02:19:29.069Z,6.77
2023-01-07T02:22:01.286Z,6.78
2023-01-07T02:24:33.990Z,6.84
2023-01-07T02:27:20.924Z,6.85
2023-01-07T02:29:50.632Z,6.84
2023-01-07T02:32:35.868Z,6.85
2023-01-07T02:38:35.608Z,6.87
2023-01-07T02:41:31.396Z,6.87
2023-01-07T02:44:00.571Z,6.87
2023-01-07T02:46:30.102Z,6.86
2023-01-07T02:49:00.598Z,6.85
2023-01-07T02:51:34.037Z,6.81
2023-01-07T02:54:00.566Z,6.73
2023-01-07T02:56:36.180Z,6.67
2023-01-07T02:59:21.363Z,6.65
2023-01-07T03:01:52.638Z,6.63
2023-01-07T03:04:38.370Z,6.59
2023-01-07T03:07:16.224Z,6.55
2023-01-07T03:09:45.706Z,6.49
2023-01-07T03:12:23.312Z,6.44
2023-01-07T03:15:08.174Z,6.39
2023-01-07T03:17:53.889Z,6.31
2023-01-07T03:20:20.646Z,6.28
2023-01-07T03:22:47.113Z,6.26
2023-01-07T03:25:13.707Z,6.26
2023-01-07T03:27:40.182Z,6.23
2023-01-07T03:30:07.230Z,6.23
2023-01-07T03:32:37.796Z,6.22
2023-01-07T03:35:04.465Z,6.23
2023-01-07T03:37:30.961Z,6.23
2023-01-07T03:39:57.420Z,6.25
2023-01-07T03:42:42.243Z,6.23
2023-01-07T03:45:12.519Z,5.79
2023-01-07T03:47:39.302Z,6.14
2023-01-07T03:50:06.035Z,6.10
2023-01-07T03:52:32.563Z,6.06
2023-01-07T03:54:59.006Z,6.01
2023-01-07T03:57:25.503Z,5.95
2023-01-07T03:59:52.084Z,5.84
2023-01-07T04:02:18.670Z,5.77
2023-01-07T04:04:45.170Z,5.70
2023-01-07T04:07:11.600Z,5.63
2023-01-07T04:09:38.009Z,5.51
2023-01-07T04:12:04.458Z,5.41
2023-01-07T04:14:31.116Z,5.33
2023-01-07T04:16:57.583Z,5.25
2023-01-07T04:19:24.046Z,5.17
2023-01-07T04:21:50.582Z,5.13
2023-01-07T04:24:17.035Z,5.09
2023-01-07T04:26:43.512Z,5.11
2023-01-07T04:29:10.908Z,5.03
2023-01-07T04:31:37.353Z,4.86
2023-01-07T04:34:03.883Z,4.73
2023-01-07T04:36:30.286Z,4.65
2023-01-07T04:38:56.727Z,4.58
2023-01-07T04:41:23.187Z,4.51
2023-01-07T04:43:49.615Z,4.41
2023-01-07T04:46:16.126Z,4.29
2023-01-07T04:48:42.674Z,4.23
2023-01-07T04:51:09.133Z,4.18
2023-01-07T04:53:35.584Z,4.15
2023-01-07T04:56:02.221Z,4.11
2023-01-07T04:58:28.780Z,4.09
2023-01-07T05:00:58.513Z,4.04
2023-01-07T05:03:25.876Z,3.94
2023-01-07T05:05:52.337Z,3.84
2023-01-07T05:08:18.847Z,3.74
2023-01-07T05:10:45.317Z,3.64
2023-01-07T05:13:14.741Z,3.56
2023-01-07T05:15:41.358Z,3.53
2023-01-07T05:18:08.237Z,3.52
2023-01-07T05:20:34.655Z,3.52
2023-01-07T05:23:01.111Z,3.05
2023-01-07T05:25:27.609Z,3.44
2023-01-07T05:27:54.035Z,3.45
2023-01-07T05:30:20.462Z,3.48
2023-01-07T05:32:46.914Z,3.51
2023-01-07T05:35:13.430Z,3.53
2023-01-07T05:37:39.865Z,3.57
2023-01-07T05:40:06.973Z,3.57
2023-01-07T05:42:33.410Z,3.61
2023-01-07T05:44:59.848Z,3.66
2023-01-07T05:47:26.257Z,3.73
2023-01-07T05:49:52.750Z,3.79
2023-01-07T05:52:19.205Z,3.85
2023-01-07T05:54:45.636Z,3.87
2023-01-07T05:57:12.267Z,3.88
2023-01-07T05:59:38.773Z,3.89
2023-01-07T06:02:05.279Z,3.87
2023-01-07T06:04:31.809Z,3.83
2023-01-07T06:06:58.438Z,3.78
2023-01-07T06:09:38.154Z,3.74
2023-01-07T06:12:04.739Z,3.69
2023-01-07T06:14:31.457Z,3.65
2023-01-07T06:16:57.947Z,3.63
2023-01-07T06:19:24.516Z,3.62
2023-01-07T06:21:51.009Z,3.62
2023-01-07T06:24:17.476Z,3.66
2023-01-07T06:26:43.899Z,3.70
2023-01-07T06:29:10.721Z,3.74
2023-01-07T06:31:37.288Z,3.78
2023-01-07T06:34:03.752Z,3.83
2023-01-07T06:36:30.213Z,3.89
2023-01-07T06:38:56.676Z,3.92
2023-01-07T06:41:23.497Z,3.96
2023-01-07T06:43:49.967Z,4.00
2023-01-07T06:46:16.487Z,4.01
2023-01-07T06:48:42.943Z,3.99
2023-01-07T06:51:09.366Z,3.93
2023-01-07T06:53:35.938Z,3.88
2023-01-07T06:56:02.485Z,3.84
2023-01-07T06:58:28.912Z,3.82
2023-01-07T07:00:55.679Z,3.70
2023-01-07T07:03:22.150Z,3.62
2023-01-07T07:05:48.605Z,3.56
2023-01-07T07:08:15.113Z,3.52
2023-01-07T07:10:41.561Z,3.54
2023-01-07T07:13:08.478Z,3.58
2023-01-07T07:19:03.185Z,3.63
2023-01-07T07:21:29.604Z,3.66
2023-01-07T07:23:56.114Z,3.73
2023-01-07T07:26:22.577Z,3.79
2023-01-07T07:28:49.177Z,3.81
2023-01-07T07:31:15.861Z,3.83
2023-01-07T07:33:42.476Z,3.87
2023-01-07T07:36:09.117Z,3.89
2023-01-07T07:42:04.591Z,3.94
2023-01-07T07:44:31.086Z,3.95
2023-01-07T07:46:57.772Z,3.97
2023-01-07T07:49:24.298Z,4.01
2023-01-07T07:51:50.943Z,4.05
2023-01-07T07:54:17.477Z,4.10
2023-01-07T07:56:44.003Z,4.11
2023-01-07T07:59:10.791Z,4.14
2023-01-07T08:01:37.775Z,4.16
2023-01-07T08:04:04.380Z,4.17
2023-01-07T08:06:31.088Z,4.19
2023-01-07T08:08:57.535Z,4.23
2023-01-07T08:11:24.022Z,4.28
2023-01-07T08:13:50.506Z,4.34
2023-01-07T08:16:16.974Z,4.41
2023-01-07T08:18:43.510Z,4.46
2023-01-07T08:21:09.972Z,4.54
2023-01-07T08:23:36.487Z,4.67
2023-01-07T08:26:03.270Z,4.73
2023-01-07T08:28:32.941Z,4.82
2023-01-07T08:31:04.114Z,4.94
2023-01-07T08:33:31.456Z,5.09
2023-01-07T08:35:58.016Z,5.28
2023-01-07T08:38:25.422Z,5.56
2023-01-07T08:40:51.925Z,6.07
2023-01-07T08:43:18.411Z,6.39
2023-01-07T08:45:48.270Z,6.77
2023-01-07T08:48:14.877Z,7.02
2023-01-07T08:50:41.349Z,7.12
2023-01-07T08:53:08.183Z,7.18
2023-01-07T08:55:34.660Z,7.25
2023-01-07T08:58:23.247Z,7.28
2023-01-07T09:00:49.782Z,7.25
2023-01-07T09:03:16.303Z,7.21
2023-01-07T09:05:42.844Z,7.20
2023-01-07T09:08:09.285Z,7.17
2023-01-07T09:10:35.759Z,7.16
2023-01-07T09:13:02.474Z,7.15
2023-01-07T09:15:28.932Z,7.13
2023-01-07T09:17:55.570Z,7.14
2023-01-07T09:20:22.161Z,7.16
2023-01-07T09:22:48.631Z,7.21
2023-01-07T09:25:15.183Z,7.26
2023-01-07T09:27:42.431Z,7.31
2023-01-07T09:30:09.597Z,7.40
2023-01-07T09:32:36.325Z,7.57
2023-01-07T09:35:02.952Z,7.70
2023-01-07T09:37:29.372Z,7.81
2023-01-07T09:39:55.876Z,7.97
2023-01-07T09:42:43.498Z,8.12
2023-01-07T09:45:32.418Z,8.19
2023-01-07T09:47:59.760Z,8.25
2023-01-07T09:50:43.341Z,8.24
2023-01-07T09:53:14.215Z,8.29
2023-01-07T09:56:11.498Z,8.30
2023-01-07T09:59:06.073Z,8.34
2023-01-07T10:01:41.405Z,8.29
2023-01-07T10:04:11.181Z,8.34
2023-01-07T10:06:43.982Z,8.34
2023-01-07T10:09:18.367Z,8.34
2023-01-07T10:11:53.074Z,8.31
2023-01-07T10:14:22.641Z,8.28
2023-01-07T10:17:02.018Z,8.30
2023-01-07T10:19:47.343Z,8.23
2023-01-07T10:22:16.856Z,8.15
2023-01-07T10:24:44.872Z,8.12
2023-01-07T10:27:11.816Z,8.07
2023-01-07T10:29:52.192Z,8.08
2023-01-07T10:32:19.793Z,8.15
2023-01-07T10:34:47.789Z,8.21
2023-01-07T10:37:16.563Z,8.32
2023-01-07T10:40:01.782Z,8.41
2023-01-07T10:42:39.080Z,8.48
2023-01-07T10:45:05.529Z,8.52
2023-01-07T10:47:31.989Z,8.52
2023-01-07T10:50:12.148Z,8.53
2023-01-07T10:52:41.712Z,8.57
2023-01-07T10:55:14.405Z,8.58
2023-01-07T10:57:40.835Z,8.61
2023-01-07T11:00:07.899Z,8.68
2023-01-07T11:02:34.581Z,8.79
2023-01-07T11:05:01.253Z,8.85
2023-01-07T11:07:27.719Z,8.91
2023-01-07T11:09:54.181Z,8.97
2023-01-07T11:12:29.945Z,9.03
2023-01-07T11:14:57.155Z,9.05
2023-01-07T11:17:32.772Z,9.09
2023-01-07T11:19:59.471Z,9.15
2023-01-07T11:22:25.890Z,9.18
2023-01-07T11:24:56.153Z,9.19
2023-01-07T11:27:23.888Z,9.16
2023-01-07T11:30:20.826Z,9.12
2023-01-07T11:32:55.674Z,9.01
2023-01-07T11:35:23.150Z,8.89
2023-01-07T11:37:49.711Z,8.85
2023-01-07T11:40:16.130Z,8.81
2023-01-07T11:42:48.724Z,8.77
2023-01-07T11:45:25.296Z,8.77
2023-01-07T11:48:00.823Z,8.75
2023-01-07T11:50:27.272Z,8.76
2023-01-07T11:53:06.901Z,8.83
2023-01-07T11:55:33.356Z,8.95
2023-01-07T11:58:29.992Z,9.12
2023-01-07T12:00:46.754Z,9.32
2023-01-07T12:03:13.741Z,9.44
2023-01-07T12:05:41.197Z,9.60
2023-01-07T12:08:07.905Z,9.66
2023-01-07T12:10:34.359Z,9.70
2023-01-07T12:13:01.587Z,9.79
2023-01-07T12:15:29.463Z,9.82
2023-01-07T12:18:00.350Z,9.83
2023-01-07T12:20:45.614Z,9.83
2023-01-07T12:23:15.232Z,9.86
2023-01-07T12:26:08.097Z,9.91
2023-01-07T12:28:47.317Z,9.97
2023-01-07T12:31:27.764Z,9.99
2023-01-07T12:33:57.813Z,10.07
2023-01-07T12:36:33.662Z,10.12
2023-01-07T12:39:01.075Z,10.07
2023-01-07T12:41:28.834Z,10.05
2023-01-07T12:43:57.736Z,9.97
2023-01-07T12:46:24.717Z,9.85
2023-01-07T12:49:05.228Z,9.75
2023-01-07T12:51:50.552Z,9.59
2023-01-07T12:54:32.579Z,9.44
2023-01-07T12:57:00.223Z,9.33
2023-01-07T12:59:48.102Z,9.26
2023-01-07T13:02:41.809Z,9.16
2023-01-07T13:05:28.771Z,9.09
2023-01-07T13:07:56.938Z,9.04
2023-01-07T13:10:36.876Z,8.98
2023-01-07T13:13:04.796Z,8.92
2023-01-07T13:15:33.694Z,8.91
2023-01-07T13:18:10.660Z,8.91
2023-01-07T13:20:44.412Z,8.92
2023-01-07T13:23:37.266Z,8.92
2023-01-07T13:26:07.159Z,8.96
2023-01-07T13:28:52.473Z,9.01
2023-01-07T13:31:22.011Z,9.01
2023-01-07T13:34:04.552Z,9.00
2023-01-07T13:36:31.058Z,8.97
2023-01-07T13:39:02.146Z,8.96
2023-01-07T13:41:28.609Z,8.93
2023-01-07T13:44:10.155Z,8.94
2023-01-07T13:46:37.499Z,8.86
2023-01-07T13:49:04.182Z,8.80
2023-01-07T13:51:34.373Z,8.75
2023-01-07T13:54:01.128Z,8.69
2023-01-07T13:56:27.699Z,8.63
2023-01-07T13:58:55.841Z,8.52
2023-01-07T14:01:23.165Z,8.47
2023-01-07T14:04:09.932Z,8.37
2023-01-07T14:06:39.208Z,8.31
2023-01-07T14:09:11.026Z,8.22
2023-01-07T14:11:39.049Z,8.15
2023-01-07T14:14:05.497Z,8.12
2023-01-07T14:16:33.954Z,8.14
2023-01-07T14:19:35.869Z,8.12
2023-01-07T14:22:05.284Z,8.06
2023-01-07T14:24:44.049Z,8.01
2023-01-07T14:27:36.674Z,7.99
2023-01-07T14:30:22.540Z,7.94
2023-01-07T14:32:59.102Z,7.89
2023-01-07T14:35:25.592Z,7.84
2023-01-07T14:37:52.071Z,7.78
2023-01-07T14:40:29.272Z,7.75
2023-01-07T14:42:58.822Z,7.63
2023-01-07T14:45:37.475Z,7.51
2023-01-07T14:48:12.846Z,7.41
2023-01-07T14:50:52.591Z,7.33
2023-01-07T14:53:37.284Z,7.21
2023-01-07T14:56:03.745Z,7.07
2023-01-07T14:58:33.055Z,6.97
2023-01-07T15:00:59.569Z,6.85
2023-01-07T15:03:44.723Z,6.71
2023-01-07T15:06:12.036Z,6.42
2023-01-07T15:09:00.636Z,6.16
2023-01-07T15:11:45.956Z,5.88
2023-01-07T15:14:34.158Z,5.71
2023-01-07T15:17:00.618Z,5.58
2023-01-07T15:19:27.054Z,5.46
2023-01-07T15:22:03.189Z,5.38
2023-01-07T15:24:48.230Z,5.24
2023-01-07T15:27:15.259Z,5.07
2023-01-07T15:29:51.289Z,4.96
2023-01-07T15:32:41.178Z,4.86
2023-01-07T15:35:17.936Z,4.75
2023-01-07T15:37:45.429Z,4.69
2023-01-07T15:40:14.707Z,4.65
2023-01-07T15:42:41.209Z,4.60
2023-01-07T15:45:11.053Z,4.59
2023-01-07T15:47:39.209Z,4.54
2023-01-07T15:50:24.490Z,4.45
2023-01-07T15:52:55.152Z,4.43
2023-01-07T15:55:25.921Z,4.40
2023-01-07T15:57:53.373Z,4.35
2023-01-07T16:00:20.734Z,4.32
2023-01-07T16:02:47.204Z,4.28
2023-01-07T16:05:13.704Z,4.24
2023-01-07T16:07:52.673Z,4.17
2023-01-07T16:10:19.945Z,4.16
2023-01-07T16:12:48.406Z,4.14
2023-01-07T16:15:22.241Z,4.13
2023-01-07T16:17:56.208Z,4.15
2023-01-07T16:20:38.911Z,4.17
2023-01-07T16:23:08.518Z,4.20
2023-01-07T16:25:36.025Z,4.23
2023-01-07T16:28:22.352Z,4.29
2023-01-07T16:30:49.074Z,4.35
2023-01-07T16:33:16.255Z,4.40
2023-01-07T16:35:42.759Z,4.43
2023-01-07T16:38:09.196Z,4.46
2023-01-07T16:40:36.601Z,4.51
2023-01-07T16:43:03.506Z,4.55
2023-01-07T16:45:30.813Z,4.65
2023-01-07T16:48:01.075Z,4.68
2023-01-07T16:50:29.939Z,4.71
2023-01-07T16:52:56.674Z,4.74
2023-01-07T16:55:58.671Z,4.75
2023-01-07T16:58:43.401Z,4.73
2023-01-07T17:01:09.974Z,4.73
2023-01-07T17:03:47.232Z,4.78
2023-01-07T17:06:13.830Z,4.80
2023-01-07T17:08:40.338Z,4.82
2023-01-07T17:11:09.331Z,4.82
2023-01-07T17:13:36.878Z,4.80
2023-01-07T17:16:16.860Z,4.84
2023-01-07T17:18:43.382Z,4.85
2023-01-07T17:21:29.636Z,4.88
2023-01-07T17:23:56.165Z,4.91
2023-01-07T17:26:23.208Z,4.90
2023-01-07T17:28:53.666Z,4.89
2023-01-07T17:31:20.264Z,4.88
2023-01-07T17:33:46.967Z,4.81
2023-01-07T17:36:17.138Z,4.79
2023-01-07T17:38:43.725Z,4.77
2023-01-07T17:41:33.707Z,4.79
2023-01-07T17:44:00.656Z,4.77
2023-01-07T17:46:27.782Z,4.76
2023-01-07T17:48:54.349Z,4.79
2023-01-07T17:51:20.833Z,4.80
2023-01-07T17:53:48.065Z,4.86
2023-01-07T17:56:14.779Z,4.90
2023-01-07T17:58:41.429Z,4.92
2023-01-07T18:01:08.781Z,5.00
2023-01-07T18:03:35.450Z,5.06
2023-01-07T18:06:24.660Z,5.16
2023-01-07T18:08:51.499Z,5.23
2023-01-07T18:11:41.144Z,5.29
2023-01-07T18:17:29.540Z,5.53
2023-01-07T18:19:56.229Z,5.62
2023-01-07T18:22:22.874Z,5.74
2023-01-07T18:24:49.507Z,5.79
2023-01-07T18:27:16.443Z,5.83
2023-01-07T18:29:43.082Z,5.81
2023-01-07T18:32:09.605Z,5.80
2023-01-07T18:34:36.173Z,5.76
2023-01-07T18:37:02.674Z,5.72
2023-01-07T18:39:31.374Z,5.70
2023-01-07T18:41:57.908Z,5.74
2023-01-07T18:44:24.496Z,5.71
2023-01-07T18:46:51.086Z,5.71
2023-01-07T18:49:17.557Z,5.71
2023-01-07T18:51:45.302Z,5.72
2023-01-07T18:54:11.869Z,5.67
2023-01-07T18:56:38.355Z,5.61
2023-01-07T18:59:05.721Z,5.58
2023-01-07T19:01:32.330Z,5.50
2023-01-07T19:03:59.006Z,5.46
2023-01-07T19:06:25.482Z,5.43
2023-01-07T19:08:51.993Z,5.45
2023-01-07T19:11:18.464Z,5.44
2023-01-07T19:13:44.972Z,5.45
2023-01-07T19:16:11.953Z,5.45
2023-01-07T19:18:38.578Z,5.45
2023-01-07T19:21:05.650Z,5.45
2023-01-07T19:23:32.212Z,5.46
2023-01-07T19:26:08.371Z,5.50
2023-01-07T19:28:35.036Z,5.53
2023-01-07T19:31:04.195Z,5.55
2023-01-07T19:33:30.631Z,5.54
2023-01-07T19:36:00.241Z,5.53
2023-01-07T19:38:27.805Z,5.52
2023-01-07T19:40:54.255Z,5.50
2023-01-07T19:43:20.714Z,5.48
2023-01-07T19:45:58.386Z,5.44
2023-01-07T19:48:25.040Z,5.45
2023-01-07T19:50:55.318Z,5.43
2023-01-07T19:53:21.837Z,5.40
2023-01-07T19:55:48.508Z,5.41
2023-01-07T19:58:15.082Z,5.43
2023-01-07T20:00:41.631Z,5.41
2023-01-07T20:03:08.157Z,5.39
2023-01-07T20:05:34.782Z,5.33
2023-01-07T20:08:01.329Z,5.30
2023-01-07T20:10:27.758Z,5.26
2023-01-07T20:12:54.241Z,5.20
2023-01-07T20:15:20.868Z,5.14
2023-01-07T20:17:47.364Z,5.12
2023-01-07T20:20:13.829Z,5.13
2023-01-07T20:22:40.340Z,5.10
2023-01-07T20:25:07.567Z,5.16
2023-01-07T20:27:34.602Z,5.16
2023-01-07T20:30:01.098Z,5.17
2023-01-07T20:32:27.584Z,5.19
2023-01-07T20:34:54.077Z,5.21
2023-01-07T20:37:20.547Z,5.19
2023-01-07T20:39:47.282Z,5.20
2023-01-07T20:42:14.024Z,5.22
2023-01-07T20:44:41.568Z,5.20
2023-01-07T20:47:09.582Z,5.19
2023-01-07T20:49:36.079Z,5.17
2023-01-07T20:52:02.512Z,5.15
2023-01-07T20:54:29.048Z,5.15
2023-01-07T20:56:55.477Z,5.18
2023-01-07T20:59:21.916Z,5.22
2023-01-07T21:01:48.623Z,5.22
2023-01-07T21:04:15.403Z,5.24
2023-01-07T21:06:42.085Z,5.29
2023-01-07T21:09:09.051Z,5.34
2023-01-07T21:11:35.647Z,5.40
2023-01-07T21:14:02.139Z,5.38
2023-01-07T21:16:29.130Z,5.40
2023-01-07T21:18:55.867Z,5.40
2023-01-07T21:21:24.593Z,5.42
2023-01-07T21:23:51.607Z,5.48
2023-01-07T21:26:18.310Z,5.47
2023-01-07T21:28:44.863Z,5.45
2023-01-07T21:31:11.892Z,5.42
2023-01-07T21:33:38.710Z,5.41
2023-01-07T21:36:09.005Z,5.48
2023-01-07T21:38:35.508Z,5.48
2023-01-07T21:41:05.972Z,5.45
2023-01-07T21:43:32.439Z,5.44
2023-01-07T21:46:00.022Z,5.46
2023-01-07T21:48:26.511Z,5.46
2023-01-07T21:50:53.018Z,5.49
2023-01-07T21:53:19.468Z,5.54
2023-01-07T21:55:46.059Z,5.54
2023-01-07T21:58:12.505Z,5.56
2023-01-07T22:00:39.064Z,5.58
2023-01-07T22:03:05.612Z,5.65
2023-01-07T22:05:32.123Z,5.70
2023-01-07T22:07:58.613Z,5.75
2023-01-07T22:10:25.079Z,5.75
2023-01-07T22:12:51.644Z,5.74
2023-01-07T22:15:18.189Z,5.74
2023-01-07T22:17:44.713Z,5.75
2023-01-07T22:20:11.713Z,5.76
2023-01-07T22:22:38.193Z,5.78
2023-01-07T22:25:04.890Z,5.82
2023-01-07T22:27:31.444Z,5.81
2023-01-07T22:29:58.299Z,5.80
2023-01-07T22:32:24.871Z,5.75
2023-01-07T22:34:51.335Z,5.74
2023-01-07T22:37:18.063Z,5.71
2023-01-07T22:39:45.542Z,5.71
2023-01-07T22:42:13.237Z,5.74
2023-01-07T22:44:41.514Z,5.75
2023-01-07T22:47:08.576Z,5.82
2023-01-07T22:49:35.151Z,5.85
2023-01-07T22:52:01.770Z,5.85
2023-01-07T22:54:28.205Z,5.86
2023-01-07T22:56:54.687Z,5.83
2023-01-07T22:59:21.173Z,5.88
2023-01-07T23:01:47.666Z,5.83
2023-01-07T23:04:14.221Z,5.82
2023-01-07T23:06:40.846Z,5.84
2023-01-07T23:09:07.383Z,5.82
2023-01-07T23:11:49.107Z,5.85
2023-01-07T23:14:16.052Z,5.92
2023-01-07T23:16:42.557Z,5.92
2023-01-07T23:19:09.076Z,5.95
2023-01-07T23:21:37.690Z,5.97
2023-01-07T23:24:04.286Z,5.93
2023-01-07T23:26:30.796Z,5.87
2023-01-07T23:28:57.271Z,5.80
2023-01-07T23:31:23.776Z,5.76
2023-01-07T23:33:50.518Z,5.72
2023-01-07T23:36:16.996Z,5.71
2023-01-07T23:38:43.448Z,5.68
2023-01-07T23:41:10.295Z,5.70
2023-01-07T23:43:36.785Z,5.66
2023-01-07T23:46:03.776Z,5.64
2023-01-07T23:48:30.781Z,5.69
2023-01-07T23:50:57.336Z,5.67
2023-01-07T23:53:23.874Z,5.70
2023-01-07T23:55:53.862Z,5.72
2023-01-07T23:58:20.585Z,5.68
